Time;durP1;ratioP1;P1;durP2;ratioP2;P2;SDS_P1;SDS_P2;PMS_P1;PMS_P2;Temp;Humidity;BMP_temperature;BMP_pressure;BME280_temperature;BME280_humidity;BME280_pressure;Samples;Min_cycle;Max_cycle;Signal;HPM_P1;HPM_P2
2023/02/11 00:01:09;;;;;;;;;;;;;;;20.26;42.95;102425.31;5047892;28;2959;-61
2023/02/11 00:03:37;;;;;;;;;;;;;;;20.29;42.80;102426.94;5053376;28;2867;-61
2023/02/11 00:06:04;;;;;;;;;;;;;;;20.31;42.61;102421.34;5046844;28;2826;-61
2023/02/11 00:08:31;;;;;;;;;;;;;;;20.34;42.46;102413.59;5050344;28;2963;-62
2023/02/11 00:10:57;;;;;;;;;;;;;;;20.35;42.60;102407.25;5049814;28;3094;-61
2023/02/11 00:13:23;;;;;;;;;;;;;;;20.38;42.64;102422.53;5054176;28;2909;-61
2023/02/11 00:15:50;;;;;;;;;;;;;;;20.40;42.47;102431.31;5049475;28;2912;-61
2023/02/11 00:18:17;;;;;;;;;;;;;;;20.41;42.62;102447.97;5048611;28;2682;-61
2023/02/11 00:20:43;;;;;;;;;;;;;;;20.43;42.58;102438.72;5048994;28;3239;-61
2023/02/11 00:23:09;;;;;;;;;;;;;;;20.44;42.69;102443.88;5054288;28;3232;-61
2023/02/11 00:25:42;;;;;;;;;;;;;;;20.43;42.79;102430.84;5056768;28;2385;-61
2023/02/11 00:28:08;;;;;;;;;;;;;;;20.43;42.82;102427.19;5053209;28;3034;-61
2023/02/11 00:30:35;;;;;;;;;;;;;;;20.42;42.96;102414.94;5045743;28;2923;-61
2023/02/11 00:33:01;;;;;;;;;;;;;;;20.43;42.91;102410.72;5049454;28;2912;-61
2023/02/11 00:35:28;;;;;;;;;;;;;;;20.42;43.03;102397.69;5052234;28;3295;-61
2023/02/11 00:37:54;;;;;;;;;;;;;;;20.42;42.84;102394.06;5050410;28;2922;-61
2023/02/11 00:40:21;;;;;;;;;;;;;;;20.41;42.79;102393.31;5053577;28;2834;-61
2023/02/11 00:42:47;;;;;;;;;;;;;;;20.41;42.71;102404.81;5045491;28;2822;-61
2023/02/11 00:45:13;;;;;;;;;;;;;;;20.39;42.85;102404.66;5041178;28;2920;-61
2023/02/11 00:47:40;;;;;;;;;;;;;;;20.39;42.79;102398.91;5049772;28;2832;-61
2023/02/11 00:50:07;;;;;;;;;;;;;;;20.39;42.74;102407.53;5050033;28;3287;-61
2023/02/11 00:52:33;;;;;;;;;;;;;;;20.40;42.79;102414.78;5045456;28;2866;-60
2023/02/11 00:55:00;;;;;;;;;;;;;;;20.39;42.69;102416.19;5051348;28;2888;-61
2023/02/11 00:57:27;;;;;;;;;;;;;;;20.40;42.96;102417.66;5046766;28;2924;-61
2023/02/11 00:59:53;;;;;;;;;;;;;;;20.40;42.79;102423.44;5054096;28;2933;-61
2023/02/11 01:02:20;;;;;;;;;;;;;;;20.40;42.85;102406.16;5062339;28;2855;-61
2023/02/11 01:04:47;;;;;;;;;;;;;;;20.40;43.00;102400.41;5050028;28;2944;-61
2023/02/11 01:07:13;;;;;;;;;;;;;;;20.40;42.74;102399.66;5038708;28;3129;-61
2023/02/11 01:09:39;;;;;;;;;;;;;;;20.40;43.10;102400.41;5045372;28;3207;-61
2023/02/11 01:12:06;;;;;;;;;;;;;;;20.40;42.95;102377.38;5045410;28;2959;-61
2023/02/11 01:14:32;;;;;;;;;;;;;;;20.39;42.97;102380.91;5064635;28;2979;-61
2023/02/11 01:16:58;;;;;;;;;;;;;;;20.39;42.97;102378.78;5048639;28;2997;-61
2023/02/11 01:19:25;;;;;;;;;;;;;;;20.38;42.82;102367.88;5043259;28;3265;-61
2023/02/11 01:21:51;;;;;;;;;;;;;;;20.37;42.79;102367.13;5046656;28;3303;-61
2023/02/11 01:24:20;;;;;;;;;;;;;;;20.36;42.82;102368.47;5048815;28;2912;-61
2023/02/11 01:26:46;;;;;;;;;;;;;;;20.35;43.03;102374.84;5051770;28;2906;-61
2023/02/11 01:29:13;;;;;;;;;;;;;;;20.35;43.05;102375.59;5042729;28;2668;-61
2023/02/11 01:31:39;;;;;;;;;;;;;;;20.32;43.47;102364.53;5049094;28;2881;-61
2023/02/11 01:34:05;;;;;;;;;;;;;;;20.35;43.12;102357.59;5040767;28;2941;-61
2023/02/11 01:36:32;;;;;;;;;;;;;;;20.33;43.10;102366.81;5047179;28;2973;-61
2023/02/11 01:38:58;;;;;;;;;;;;;;;20.33;43.12;102361.06;5050604;28;2907;-61
2023/02/11 01:41:25;;;;;;;;;;;;;;;20.29;43.11;102344.28;5052739;28;2836;-61
2023/02/11 01:43:51;;;;;;;;;;;;;;;20.28;43.19;102337.00;5066827;28;2987;-61
2023/02/11 01:46:33;;;;;;;;;;;;;;;20.30;43.01;102340.03;5044306;28;2996;-61
2023/02/11 01:49:00;;;;;;;;;;;;;;;20.29;43.28;102332.78;5054972;28;3259;-61
2023/02/11 01:51:28;;;;;;;;;;;;;;;20.30;43.29;102334.28;5061934;28;2830;-61
2023/02/11 01:59:28;;;;;;;;;;;;;;;20.29;43.30;102311.88;5029683;28;3022;-60
2023/02/11 02:01:55;;;;;;;;;;;;;;;20.29;43.29;102309.00;5051136;28;3271;-61
2023/02/11 02:04:22;;;;;;;;;;;;;;;20.30;43.28;102304.75;5051022;28;3339;-60
2023/02/11 02:06:49;;;;;;;;;;;;;;;20.28;43.19;102319.75;5053851;28;2820;-61
2023/02/11 02:09:18;;;;;;;;;;;;;;;20.27;43.32;102305.97;5040412;28;3215;-61
2023/02/11 02:11:45;;;;;;;;;;;;;;;20.27;43.21;102300.22;5059692;28;2944;-61
2023/02/11 02:14:12;;;;;;;;;;;;;;;20.25;43.17;102292.22;5062336;28;2874;-61
2023/02/11 02:16:38;;;;;;;;;;;;;;;20.25;43.23;102279.97;5055099;28;2925;-61
2023/02/11 02:19:11;;;;;;;;;;;;;;;20.24;43.32;102287.81;5050544;28;2822;-60
2023/02/11 02:21:52;;;;;;;;;;;;;;;20.23;43.23;102294.22;5053017;28;2851;-61
2023/02/11 02:24:18;;;;;;;;;;;;;;;20.22;43.16;102287.69;5061260;28;2811;-60
2023/02/11 02:27:02;;;;;;;;;;;;;;;20.22;43.25;102281.19;5050514;28;2824;-61
2023/02/11 02:29:54;;;;;;;;;;;;;;;20.20;43.30;102286.78;5045483;28;2954;-61
2023/02/11 02:32:25;;;;;;;;;;;;;;;20.19;43.31;102288.16;5046674;28;2906;-61
2023/02/11 02:34:51;;;;;;;;;;;;;;;20.19;43.17;102296.78;5058482;28;2958;-61
2023/02/11 02:37:20;;;;;;;;;;;;;;;20.17;43.21;102297.41;5053417;28;2964;-61
2023/02/11 02:39:46;;;;;;;;;;;;;;;20.16;43.28;102283.63;5052081;28;2975;-61
2023/02/11 02:42:13;;;;;;;;;;;;;;;20.15;43.27;102291.50;5055856;28;2875;-61
2023/02/11 02:44:39;;;;;;;;;;;;;;;20.15;43.28;102299.38;5056041;28;2478;-61
2023/02/11 02:47:05;;;;;;;;;;;;;;;20.13;43.14;102296.34;5053647;28;2955;-61
2023/02/11 02:49:32;;;;;;;;;;;;;;;20.13;43.21;102270.47;5052256;28;3369;-61
2023/02/11 02:52:04;;;;;;;;;;;;;;;20.11;43.25;102264.56;5057295;28;2930;-61
2023/02/11 02:54:49;;;;;;;;;;;;;;;20.09;43.18;102263.09;5054169;28;2879;-61
2023/02/11 02:57:37;;;;;;;;;;;;;;;20.09;43.28;102262.34;5055473;28;2938;-61
2023/02/11 03:00:03;;;;;;;;;;;;;;;20.07;43.10;102254.31;5052421;28;3037;-61
2023/02/11 03:02:49;;;;;;;;;;;;;;;20.08;43.34;102249.31;5055395;28;3240;-60
2023/02/11 03:05:35;;;;;;;;;;;;;;;20.04;43.16;102241.16;5052125;28;2932;-60
2023/02/11 03:08:04;;;;;;;;;;;;;;;20.05;43.37;102239.78;5040174;28;2777;-61
2023/02/11 03:10:31;;;;;;;;;;;;;;;20.04;43.39;102246.91;5051160;28;3231;-61
2023/02/11 03:12:58;;;;;;;;;;;;;;;20.03;43.30;102236.03;5049840;28;2907;-60
2023/02/11 03:15:24;;;;;;;;;;;;;;;20.02;43.26;102243.91;5050668;28;2895;-60
2023/02/11 03:17:51;;;;;;;;;;;;;;;20.01;43.32;102244.50;5053229;28;2935;-61
2023/02/11 03:20:18;;;;;;;;;;;;;;;20.01;43.28;102250.25;5038599;28;2868;-61
2023/02/11 03:22:49;;;;;;;;;;;;;;;20.00;43.32;102249.50;5055354;28;3082;-61
2023/02/11 03:25:15;;;;;;;;;;;;;;;20.00;43.33;102249.50;5051793;28;2860;-60
2023/02/11 03:27:42;;;;;;;;;;;;;;;19.99;43.29;102253.72;5054490;28;3048;-61
2023/02/11 03:30:10;;;;;;;;;;;;;;;19.98;43.32;102258.00;5050668;28;2872;-61
2023/02/11 03:32:40;;;;;;;;;;;;;;;19.97;43.37;102262.22;5050658;28;2811;-61
2023/02/11 03:35:09;;;;;;;;;;;;;;;19.97;43.31;102256.47;5044797;28;3381;-61
2023/02/11 03:37:38;;;;;;;;;;;;;;;19.97;43.22;102261.47;5049997;28;2851;-61
2023/02/11 03:40:12;;;;;;;;;;;;;;;19.99;43.13;102253.72;5049054;28;2813;-61
2023/02/11 03:42:41;;;;;;;;;;;;;;;20.03;43.04;102248.28;5065239;28;2877;-61
2023/02/11 03:45:08;;;;;;;;;;;;;;;20.05;42.89;102239.78;5050195;28;2935;-61
2023/02/11 03:47:35;;;;;;;;;;;;;;;20.08;42.95;102243.56;5046712;28;2975;-61
2023/02/11 03:50:01;;;;;;;;;;;;;;;20.11;43.04;102250.19;5049812;28;2938;-62
2023/02/11 03:52:28;;;;;;;;;;;;;;;20.13;43.13;102250.34;5046843;28;3013;-62
2023/02/11 03:54:54;;;;;;;;;;;;;;;20.14;43.31;102254.75;5053242;28;2748;-62
2023/02/11 03:57:21;;;;;;;;;;;;;;;20.14;43.63;102257.63;5051707;28;2836;-62
2023/02/11 03:59:50;;;;;;;;;;;;;;;20.15;43.68;102259.13;5050719;28;3026;-62
2023/02/11 04:02:16;;;;;;;;;;;;;;;20.15;43.54;102253.38;5053731;28;2866;-61
2023/02/11 04:04:43;;;;;;;;;;;;;;;20.15;43.48;102253.38;5052535;28;2885;-61
2023/02/11 04:07:10;;;;;;;;;;;;;;;20.15;43.40;102251.22;5052792;28;2821;-61
2023/02/11 04:09:36;;;;;;;;;;;;;;;20.15;43.53;102247.59;5048903;28;2995;-61
2023/02/11 04:12:03;;;;;;;;;;;;;;;20.15;43.74;102244.72;5052638;28;2928;-62
2023/02/11 04:14:29;;;;;;;;;;;;;;;20.15;43.56;102242.59;5052669;28;2816;-62
2023/02/11 04:16:55;;;;;;;;;;;;;;;20.13;43.77;102250.34;5051799;28;2786;-62
2023/02/11 04:19:22;;;;;;;;;;;;;;;20.14;43.46;102249.75;5049190;28;2831;-61
2023/02/11 04:21:48;;;;;;;;;;;;;;;20.15;43.77;102247.59;5052530;28;2714;-61
2023/02/11 04:24:14;;;;;;;;;;;;;;;20.14;43.70;102257.63;5052951;28;2881;-62
2023/02/11 04:26:41;;;;;;;;;;;;;;;20.16;43.66;102260.59;5047083;28;2739;-62
2023/02/11 04:29:07;;;;;;;;;;;;;;;20.21;43.88;102259.53;5049477;28;2885;-65
2023/02/11 04:31:34;;;;;;;;;;;;;;;20.19;43.82;102250.78;5052748;28;2714;-61
2023/02/11 04:34:00;;;;;;;;;;;;;;;20.17;43.85;102256.38;5051553;28;2860;-61
2023/02/11 04:36:26;;;;;;;;;;;;;;;20.19;43.72;102242.16;5047660;28;2934;-61
2023/02/11 04:38:53;;;;;;;;;;;;;;;20.20;43.95;102243.63;5050265;28;2821;-61
2023/02/11 04:41:19;;;;;;;;;;;;;;;20.20;44.07;102246.50;5050786;28;2923;-61
2023/02/11 04:43:45;;;;;;;;;;;;;;;20.21;44.19;102239.41;5054228;28;2859;-61
2023/02/11 04:46:12;;;;;;;;;;;;;;;20.21;44.16;102236.53;5052575;28;2869;-61
2023/02/11 04:48:38;;;;;;;;;;;;;;;20.22;43.87;102235.91;5053210;28;2540;-61
2023/02/11 04:51:04;;;;;;;;;;;;;;;20.21;44.18;102228.66;5047417;28;2895;-61
2023/02/11 04:53:31;;;;;;;;;;;;;;;20.22;44.14;102223.66;5051366;28;3358;-61
2023/02/11 04:55:57;;;;;;;;;;;;;;;20.21;44.43;102233.66;5054351;28;3192;-61
2023/02/11 04:58:24;;;;;;;;;;;;;;;20.21;44.26;102228.66;5050632;28;2887;-61
2023/02/11 05:00:50;;;;;;;;;;;;;;;20.23;44.12;102230.94;5052526;28;2725;-61
2023/02/11 05:03:16;;;;;;;;;;;;;;;20.23;44.13;102225.16;5052664;28;2884;-61
2023/02/11 05:05:43;;;;;;;;;;;;;;;20.25;44.24;102217.44;5051264;28;3075;-61
2023/02/11 05:08:09;;;;;;;;;;;;;;;20.25;43.97;102216.69;5051303;28;3032;-61
2023/02/11 05:10:35;;;;;;;;;;;;;;;20.26;44.54;102206.69;5050062;28;3157;-61
2023/02/11 05:13:02;;;;;;;;;;;;;;;20.25;44.28;102211.69;5045382;28;2942;-61
2023/02/11 05:15:28;;;;;;;;;;;;;;;20.24;44.41;102215.16;5053572;28;2827;-61
2023/02/11 05:17:55;;;;;;;;;;;;;;;20.25;44.54;102208.06;5052439;28;2946;-61
2023/02/11 05:20:21;;;;;;;;;;;;;;;20.24;44.59;102203.66;5050053;28;2955;-61
2023/02/11 05:22:47;;;;;;;;;;;;;;;20.25;44.45;102205.19;5051329;28;2907;-61
2023/02/11 05:25:14;;;;;;;;;;;;;;;20.24;44.63;102197.91;5053341;28;2426;-61
2023/02/11 05:27:40;;;;;;;;;;;;;;;20.24;44.40;102203.66;5049016;28;2891;-61
2023/02/11 05:30:07;;;;;;;;;;;;;;;20.25;44.41;102193.69;5047506;28;2880;-61
2023/02/11 05:32:33;;;;;;;;;;;;;;;20.24;44.35;102200.78;5052430;28;2828;-61
2023/02/11 05:34:59;;;;;;;;;;;;;;;20.23;44.42;102188.53;5053579;28;2852;-61
2023/02/11 05:37:26;;;;;;;;;;;;;;;20.25;44.59;102194.41;5049347;28;2980;-61
2023/02/11 05:39:52;;;;;;;;;;;;;;;20.24;44.46;102189.28;5051990;28;2734;-61
2023/02/11 05:42:18;;;;;;;;;;;;;;;20.24;44.50;102180.66;5051875;28;2824;-61
2023/02/11 05:44:45;;;;;;;;;;;;;;;20.25;44.76;102167.78;5049465;28;3232;-61
2023/02/11 05:47:13;;;;;;;;;;;;;;;20.26;44.26;102167.16;5048920;28;3145;-61
2023/02/11 05:49:39;;;;;;;;;;;;;;;20.26;44.54;102161.41;5050776;28;3019;-61
2023/02/11 05:52:05;;;;;;;;;;;;;;;20.27;44.30;102157.16;5047073;28;3165;-61
2023/02/11 05:54:32;;;;;;;;;;;;;;;20.28;44.33;102163.66;5046172;28;2939;-61
2023/02/11 05:56:58;;;;;;;;;;;;;;;20.28;44.70;102172.28;5040971;28;2887;-61
2023/02/11 05:59:25;;;;;;;;;;;;;;;20.27;44.52;102165.03;5051986;28;2996;-61
2023/02/11 06:01:51;;;;;;;;;;;;;;;20.26;44.37;102166.41;5048458;28;2740;-61
2023/02/11 06:04:17;;;;;;;;;;;;;;;20.27;44.57;102162.16;5050290;28;2789;-61
2023/02/11 06:06:44;;;;;;;;;;;;;;;20.26;44.54;102167.16;5047091;28;2949;-61
2023/02/11 06:09:10;;;;;;;;;;;;;;;20.26;44.22;102169.28;5048786;28;2889;-61
2023/02/11 06:11:37;;;;;;;;;;;;;;;20.27;44.63;102168.66;5050610;28;3160;-61
2023/02/11 06:14:03;;;;;;;;;;;;;;;20.27;44.49;102173.66;5040209;28;3202;-61
2023/02/11 06:16:29;;;;;;;;;;;;;;;20.28;44.33;102175.91;5048761;28;2965;-61
2023/02/11 06:18:56;;;;;;;;;;;;;;;20.29;44.33;102186.06;5045885;28;3208;-61
2023/02/11 06:21:22;;;;;;;;;;;;;;;20.29;44.38;102176.66;5042142;28;2802;-61
2023/02/11 06:23:55;;;;;;;;;;;;;;;20.30;44.57;102189.69;5046848;28;2859;-61
2023/02/11 06:26:22;;;;;;;;;;;;;;;20.28;44.33;102187.44;5050101;28;2906;-61
2023/02/11 06:28:48;;;;;;;;;;;;;;;20.27;44.67;102173.66;5049988;28;2982;-61
2023/02/11 06:31:15;;;;;;;;;;;;;;;20.27;44.48;102162.16;5051098;28;2942;-61
2023/02/11 06:33:41;;;;;;;;;;;;;;;20.26;44.66;102163.53;5052385;28;1792;-61
2023/02/11 06:36:14;;;;;;;;;;;;;;;20.26;44.66;102166.41;5054874;28;2734;-61
2023/02/11 06:38:41;;;;;;;;;;;;;;;20.26;44.59;102154.91;5048844;28;2963;-61
2023/02/11 06:41:13;;;;;;;;;;;;;;;20.27;44.49;102156.38;5056927;28;2915;-61
2023/02/11 06:43:39;;;;;;;;;;;;;;;20.29;44.60;102153.66;5049122;28;2902;-61
2023/02/11 06:46:06;;;;;;;;;;;;;;;20.29;44.58;102147.91;5047501;28;2750;-61
2023/02/11 06:48:32;;;;;;;;;;;;;;;20.30;44.23;102146.53;5054627;28;2932;-61
2023/02/11 06:51:03;;;;;;;;;;;;;;;20.30;44.46;102149.41;5050331;28;3192;-61
2023/02/11 06:53:30;;;;;;;;;;;;;;;20.31;44.48;102153.78;5054720;28;2890;-61
2023/02/11 06:56:00;;;;;;;;;;;;;;;20.30;44.49;102158.06;5056481;28;2738;-61
2023/02/11 06:58:27;;;;;;;;;;;;;;;20.30;44.31;102166.69;5056222;28;2663;-61
2023/02/11 07:00:53;;;;;;;;;;;;;;;20.29;44.49;102171.69;5056105;28;2711;-61
2023/02/11 07:03:19;;;;;;;;;;;;;;;20.29;44.14;102168.03;5052285;28;2714;-61
2023/02/11 07:05:46;;;;;;;;;;;;;;;20.29;44.45;102168.03;5055318;28;2880;-61
2023/02/11 07:08:12;;;;;;;;;;;;;;;20.29;44.36;102176.66;5050296;28;2896;-61
2023/02/11 07:10:39;;;;;;;;;;;;;;;20.38;44.47;102178.72;5051377;28;3018;-62
2023/02/11 07:13:05;;;;;;;;;;;;;;;20.35;44.47;102177.09;5049027;28;3235;-62
2023/02/11 07:15:31;;;;;;;;;;;;;;;20.39;44.81;102168.72;5049051;28;3075;-62
2023/02/11 07:17:58;;;;;;;;;;;;;;;20.41;44.63;102160.25;5054365;28;2972;-62
2023/02/11 07:20:24;;;;;;;;;;;;;;;20.38;44.41;102154.97;5050205;28;2883;-61
2023/02/11 07:22:51;;;;;;;;;;;;;;;20.38;44.62;102152.81;5055484;28;1618;-62
2023/02/11 07:25:17;;;;;;;;;;;;;;;20.36;44.50;102149.81;5051263;28;2999;-62
2023/02/11 07:27:43;;;;;;;;;;;;;;;20.35;44.51;102156.19;5053017;28;2948;-62
2023/02/11 07:30:10;;;;;;;;;;;;;;;20.34;44.51;102149.69;5055790;28;1639;-61
2023/02/11 07:32:37;;;;;;;;;;;;;;;20.34;44.65;102138.19;5054690;28;2530;-62
2023/02/11 07:35:03;;;;;;;;;;;;;;;20.32;44.46;102135.19;5049014;28;2434;-61
2023/02/11 07:37:31;;;;;;;;;;;;;;;20.32;44.32;102132.31;5042629;28;2855;-62
2023/02/11 07:39:58;;;;;;;;;;;;;;;20.32;44.68;102129.41;5048082;28;2976;-62
2023/02/11 07:42:24;;;;;;;;;;;;;;;20.31;44.48;102122.16;5053319;28;2921;-62
2023/02/11 07:44:50;;;;;;;;;;;;;;;20.33;44.23;102136.66;5049919;28;2800;-62
2023/02/11 07:47:17;;;;;;;;;;;;;;;20.33;44.49;102141.69;5051504;28;2898;-62
2023/02/11 07:49:44;;;;;;;;;;;;;;;20.33;44.37;102145.31;5049730;28;2871;-62
2023/02/11 07:52:10;;;;;;;;;;;;;;;20.34;44.57;102137.41;5051958;28;2867;-62
2023/02/11 07:54:36;;;;;;;;;;;;;;;20.34;44.52;102148.94;5051171;28;3088;-62
2023/02/11 07:57:03;;;;;;;;;;;;;;;20.35;44.52;102153.31;5049712;28;2939;-62
2023/02/11 07:59:29;;;;;;;;;;;;;;;20.35;44.59;102159.06;5049576;28;2765;-62
2023/02/11 08:01:55;;;;;;;;;;;;;;;20.34;44.39;102143.94;5051916;28;2734;-61
2023/02/11 08:04:22;;;;;;;;;;;;;;;20.33;44.51;102138.81;5055136;28;2919;-62
2023/02/11 08:06:48;;;;;;;;;;;;;;;20.32;44.75;102129.41;5050197;28;3003;-61
2023/02/11 08:09:15;;;;;;;;;;;;;;;20.30;44.47;102127.16;5055341;28;2808;-61
2023/02/11 08:11:41;;;;;;;;;;;;;;;20.30;44.42;102132.91;5051042;28;2947;-61
2023/02/11 08:14:08;;;;;;;;;;;;;;;20.29;45.19;102136.38;5055721;28;2742;-61
2023/02/11 08:16:34;;;;;;;;;;;;;;;20.27;46.28;102147.75;5047475;28;2860;-62
2023/02/11 08:19:02;;;;;;;;;;;;;;;20.27;45.97;102139.13;5048253;28;3304;-62
2023/02/11 08:21:28;;;;;;;;;;;;;;;20.23;45.77;102156.13;5049573;28;3022;-63
2023/02/11 08:23:54;;;;;;;;;;;;;;;20.26;45.73;102166.41;5050205;28;3304;-62
2023/02/11 08:26:21;;;;;;;;;;;;;;;20.24;45.67;102169.88;5046956;28;2758;-62
2023/02/11 08:28:48;;;;;;;;;;;;;;;20.23;45.39;102177.03;5051566;28;2738;-62
2023/02/11 08:31:15;;;;;;;;;;;;;;;20.26;45.07;102166.41;5053176;28;2639;-62
2023/02/11 08:33:42;;;;;;;;;;;;;;;20.26;45.08;102172.16;5052349;28;2822;-62
2023/02/11 08:36:09;;;;;;;;;;;;;;;20.27;45.19;102185.94;5054154;28;2711;-62
2023/02/11 08:38:35;;;;;;;;;;;;;;;20.24;45.51;102186.41;5051992;28;3020;-64
2023/02/11 08:41:01;;;;;;;;;;;;;;;20.34;45.36;102194.97;5045378;28;2880;-63
2023/02/11 08:43:28;;;;;;;;;;;;;;;20.31;45.62;102196.94;5045950;28;2828;-62
2023/02/11 08:45:54;;;;;;;;;;;;;;;20.33;45.49;102190.59;5050729;28;2950;-63
2023/02/11 08:48:21;;;;;;;;;;;;;;;20.32;45.59;102192.72;5054987;28;2841;-63
2023/02/11 08:50:47;;;;;;;;;;;;;;;20.33;45.48;102199.22;5053043;28;2888;-63
2023/02/11 08:53:13;;;;;;;;;;;;;;;20.32;45.95;102189.84;5051781;28;2127;-63
2023/02/11 08:55:40;;;;;;;;;;;;;;;20.32;45.81;102181.22;5054955;28;2742;-63
2023/02/11 08:58:06;;;;;;;;;;;;;;;20.32;45.80;102163.16;5051749;28;2715;-63
2023/02/11 09:00:32;;;;;;;;;;;;;;;20.30;45.41;102149.41;5053079;28;1744;-63
2023/02/11 09:03:00;;;;;;;;;;;;;;;20.32;45.76;102163.94;5054843;28;1741;-63
2023/02/11 09:05:26;;;;;;;;;;;;;;;20.32;46.31;102163.94;5048351;28;2822;-63
2023/02/11 09:07:52;;;;;;;;;;;;;;;20.31;46.04;102153.78;5052152;28;2636;-64
2023/02/11 09:10:19;;;;;;;;;;;;;;;20.36;45.80;102158.44;5049853;28;2795;-64
2023/02/11 09:12:45;;;;;;;;;;;;;;;20.34;45.50;102161.22;5041728;28;3454;-63
2023/02/11 09:15:12;;;;;;;;;;;;;;;20.35;46.29;102159.81;5043761;28;3373;-64
2023/02/11 09:17:38;;;;;;;;;;;;;;;20.36;46.36;102172.81;5051812;28;3056;-64
2023/02/11 09:20:04;;;;;;;;;;;;;;;20.37;46.48;102180.09;5049469;28;3092;-64
2023/02/11 09:22:31;;;;;;;;;;;;;;;20.35;46.28;102179.97;5049754;28;3408;-65
2023/02/11 09:24:57;;;;;;;;;;;;;;;20.35;46.07;102174.22;5052365;28;3744;-65
2023/02/11 09:27:23;;;;;;;;;;;;;;;20.35;45.93;102182.09;5041737;28;3239;-64
2023/02/11 09:29:50;;;;;;;;;;;;;;;20.36;46.10;102195.09;5050499;28;3508;-64
2023/02/11 09:32:17;;;;;;;;;;;;;;;20.36;46.15;102210.22;5050999;28;3047;-65
2023/02/11 09:34:43;;;;;;;;;;;;;;;20.36;45.91;102203.72;5049822;28;3354;-65
2023/02/11 09:37:09;;;;;;;;;;;;;;;20.34;45.95;102206.47;5041640;28;2988;-65
2023/02/11 09:39:36;;;;;;;;;;;;;;;20.34;45.97;102200.72;5050413;28;3246;-64
2023/02/11 09:42:08;;;;;;;;;;;;;;;20.33;45.83;102170.44;5044031;28;3020;-65
2023/02/11 09:44:35;;;;;;;;;;;;;;;20.34;46.14;102175.59;5042891;28;3012;-65
2023/02/11 09:47:02;;;;;;;;;;;;;;;20.35;46.17;102184.97;5049941;28;3738;-65
2023/02/11 09:49:34;;;;;;;;;;;;;;;20.36;46.33;102180.72;5047934;28;3023;-64
2023/02/11 09:52:05;;;;;;;;;;;;;;;20.36;45.84;102187.22;5042793;28;3354;-64
2023/02/11 09:54:34;;;;;;;;;;;;;;;20.37;46.25;102203.13;5040233;28;3274;-65
2023/02/11 09:57:00;;;;;;;;;;;;;;;20.37;46.08;102217.50;5047013;28;2930;-65
2023/02/11 09:59:26;;;;;;;;;;;;;;;20.36;45.99;102224.59;5049748;28;2968;-65
2023/02/11 10:01:55;;;;;;;;;;;;;;;20.38;46.08;102226.88;5047714;28;3345;-63
2023/02/11 10:04:29;;;;;;;;;;;;;;;20.39;46.21;102232.03;5050107;28;3036;-63
2023/02/11 10:06:56;;;;;;;;;;;;;;;20.38;46.10;102236.25;5044551;28;3364;-64
2023/02/11 10:09:41;;;;;;;;;;;;;;;20.36;46.12;102239.00;5063029;28;3340;-64
2023/02/11 10:12:17;;;;;;;;;;;;;;;20.35;45.90;102237.50;5045610;28;2938;-64
2023/02/11 10:15:02;;;;;;;;;;;;;;;20.37;45.98;102246.28;5062883;28;3672;-64
2023/02/11 10:17:32;;;;;;;;;;;;;;;20.36;46.18;102230.38;5053559;28;3071;-64
2023/02/11 10:20:03;;;;;;;;;;;;;;;20.37;46.27;102234.75;5048818;28;3010;-64
2023/02/11 10:22:31;;;;;;;;;;;;;;;20.37;46.27;102229.00;5050947;28;3385;-64
2023/02/11 10:24:58;;;;;;;;;;;;;;;20.39;46.11;102226.28;5047391;28;3141;-64
2023/02/11 10:27:34;;;;;;;;;;;;;;;20.40;46.09;102227.03;5052282;28;3300;-64
2023/02/11 10:30:03;;;;;;;;;;;;;;;20.40;46.13;102232.78;5047874;28;3129;-64
2023/02/11 10:32:46;;;;;;;;;;;;;;;20.40;45.95;102221.28;5053158;28;3040;-64
2023/02/11 10:35:14;;;;;;;;;;;;;;;20.40;46.05;102227.03;5054964;28;2935;-64
2023/02/11 10:37:40;;;;;;;;;;;;;;;20.39;45.77;102232.03;5052743;28;3085;-65
2023/02/11 10:40:13;;;;;;;;;;;;;;;20.39;45.86;102231.28;5050257;28;3538;-64
2023/02/11 10:42:40;;;;;;;;;;;;;;;20.39;46.05;102226.28;5044968;28;3485;-64
2023/02/11 10:45:14;;;;;;;;;;;;;;;20.40;46.00;102219.13;5051955;28;3481;-64
2023/02/11 10:47:41;;;;;;;;;;;;;;;20.40;45.83;102210.50;5052977;28;3083;-64
2023/02/11 10:50:17;;;;;;;;;;;;;;;20.45;45.94;102211.53;5045125;28;3484;-65
2023/02/11 10:52:44;;;;;;;;;;;;;;;20.44;45.93;102227.31;5053152;28;3231;-64
2023/02/11 10:55:14;;;;;;;;;;;;;;;20.42;46.00;102235.78;5048278;28;2863;-64
2023/02/11 10:57:43;;;;;;;;;;;;;;;20.42;46.07;102242.31;5054013;28;2997;-63
2023/02/11 11:00:21;;;;;;;;;;;;;;;20.43;45.95;102246.69;5048470;28;3368;-65
2023/02/11 11:03:06;;;;;;;;;;;;;;;20.43;45.94;102237.28;5050327;28;3028;-65
2023/02/11 11:05:36;;;;;;;;;;;;;;;20.42;46.11;102230.78;5048719;28;3520;-64
2023/02/11 11:08:04;;;;;;;;;;;;;;;20.42;46.00;102213.53;5049566;28;3010;-65
2023/02/11 11:10:35;;;;;;;;;;;;;;;20.41;45.92;102214.91;5053291;28;3049;-64
2023/02/11 11:13:01;;;;;;;;;;;;;;;20.42;45.95;102207.78;5053587;28;3045;-64
2023/02/11 11:15:28;;;;;;;;;;;;;;;20.40;46.02;102210.50;5053264;28;3192;-64
2023/02/11 11:18:07;;;;;;;;;;;;;;;20.40;45.74;102210.50;5050995;28;3082;-64
2023/02/11 11:20:54;;;;;;;;;;;;;;;20.40;45.96;102204.75;5047331;28;3242;-65
2023/02/11 11:23:21;;;;;;;;;;;;;;;20.40;45.77;102207.63;5050731;28;3009;-64
2023/02/11 11:25:58;;;;;;;;;;;;;;;20.40;46.13;102204.75;5047017;28;3459;-65
2023/02/11 11:28:25;;;;;;;;;;;;;;;20.39;45.98;102200.38;5044999;28;3154;-64
2023/02/11 11:30:52;;;;;;;;;;;;;;;20.46;45.76;102202.28;5039367;28;2891;-63
2023/02/11 11:33:23;;;;;;;;;;;;;;;20.48;45.67;102204.56;5052445;28;2683;-63
2023/02/11 11:35:57;;;;;;;;;;;;;;;20.45;45.90;102208.66;5058480;28;2840;-63
2023/02/11 11:38:24;;;;;;;;;;;;;;;20.43;45.99;102203.53;5042681;28;3300;-63
2023/02/11 11:41:09;;;;;;;;;;;;;;;20.41;45.85;102209.16;5052207;28;2950;-63
2023/02/11 11:43:36;;;;;;;;;;;;;;;20.40;46.10;102193.25;5051354;28;2958;-63
2023/02/11 11:46:05;;;;;;;;;;;;;;;20.40;46.12;102199.00;5046284;28;2804;-63
2023/02/11 11:48:37;;;;;;;;;;;;;;;20.41;45.94;102205.50;5044120;28;3015;-63
2023/02/11 11:51:04;;;;;;;;;;;;;;;20.41;45.83;102212.03;5054260;28;2845;-63
2023/02/11 11:53:34;;;;;;;;;;;;;;;20.41;46.10;102205.50;5041623;28;3178;-63
2023/02/11 11:56:13;;;;;;;;;;;;;;;20.41;45.78;102194.75;5055187;28;2762;-63
2023/02/11 11:58:40;;;;;;;;;;;;;;;20.40;45.98;102184.63;5048942;28;2828;-63
2023/02/11 12:01:14;;;;;;;;;;;;;;;20.40;45.86;102184.63;5057023;28;3004;-63
2023/02/11 12:04:01;;;;;;;;;;;;;;;20.42;45.81;102190.50;5046919;28;2716;-63
2023/02/11 12:06:38;;;;;;;;;;;;;;;20.42;46.02;102187.63;5052677;28;2886;-63
2023/02/11 12:09:14;;;;;;;;;;;;;;;20.42;46.12;102207.03;5041697;28;2843;-63
2023/02/11 12:11:46;;;;;;;;;;;;;;;20.41;46.74;102194.75;5051362;28;2993;-63
2023/02/11 12:14:19;;;;;;;;;;;;;;;20.40;46.99;102199.00;5052540;28;2923;-63
2023/02/11 12:16:55;;;;;;;;;;;;;;;20.41;47.23;102188.22;5044801;28;3247;-63
2023/02/11 12:19:30;;;;;;;;;;;;;;;20.41;46.80;102194.75;5051140;28;2939;-63
2023/02/11 12:22:02;;;;;;;;;;;;;;;20.40;46.52;102193.25;5049776;28;2999;-63
2023/02/11 12:24:28;;;;;;;;;;;;;;;20.35;46.74;102202.22;5047144;28;2848;-63
2023/02/11 12:27:13;;;;;;;;;;;;;;;20.35;46.63;102194.34;5048255;28;3048;-66
2023/02/11 12:29:53;;;;;;;;;;;;;;;20.33;46.56;102188.44;5044689;28;3044;-64
2023/02/11 12:32:23;;;;;;;;;;;;;;;20.33;46.37;102202.84;5049880;28;2970;-66
2023/02/11 12:34:56;;;;;;;;;;;;;;;20.35;46.59;102184.97;5049791;28;2870;-65
2023/02/11 12:37:26;;;;;;;;;;;;;;;20.42;47.03;102195.50;5045518;28;3229;-65
2023/02/11 12:39:55;;;;;;;;;;;;;;;20.81;51.03;102195.22;5039608;28;5003;-68
2023/02/11 12:45:28;;;;;;;;;;;;;;;21.21;48.49;102205.00;5047294;28;3095;-66
2023/02/11 12:47:59;;;;;;;;;;;;;;;21.27;47.90;102196.75;5051921;28;3237;-69
2023/02/11 12:50:26;;;;;;;;;;;;;;;21.33;47.21;102197.88;5061491;28;3197;-67
2023/02/11 12:52:56;;;;;;;;;;;;;;;21.41;47.20;102196.94;5045451;28;3182;-65
2023/02/11 12:55:23;;;;;;;;;;;;;;;21.55;46.74;102194.94;5048508;28;3249;-68
2023/02/11 12:57:49;;;;;;;;;;;;;;;21.64;46.10;102196.19;5054758;28;3192;-65
2023/02/11 13:00:27;;;;;;;;;;;;;;;21.50;46.04;102182.41;5053410;28;3031;-66
2023/02/11 13:02:53;;;;;;;;;;;;;;;20.14;47.06;102191.47;5052349;28;3127;-64